createdAt,value
2022-11-05T00:00:39.032Z,99828.84
2022-11-05T00:04:03.012Z,99819.13
2022-11-05T00:07:42.884Z,99819.94
2022-11-05T00:10:46.278Z,99822.47
2022-11-05T00:14:08.217Z,99816.31
2022-11-05T00:17:11.136Z,99822.34
2022-11-05T00:20:14.580Z,99820.53
2022-11-05T00:23:36.241Z,99834.44
2022-11-05T00:26:39.047Z,99837.84
2022-11-05T00:29:42.176Z,99843.09
2022-11-05T00:32:48.886Z,99832.69
2022-11-05T00:35:51.874Z,99828.34
2022-11-05T00:38:54.621Z,99826.50
2022-11-05T00:42:16.888Z,99828.22
2022-11-05T00:45:20.761Z,99839.47
2022-11-05T00:48:43.601Z,99829.00
2022-11-05T00:51:46.536Z,99834.19
2022-11-05T00:54:50.018Z,99842.78
2022-11-05T00:57:52.736Z,99838.38
2022-11-05T01:00:57.711Z,99824.44
2022-11-05T01:04:00.324Z,99836.50
2022-11-05T01:07:03.399Z,99841.63
2022-11-05T01:10:06.563Z,99831.19
2022-11-05T01:13:13.233Z,99827.66
2022-11-05T01:16:16.162Z,99823.28
2022-11-05T01:19:19.204Z,99841.44
2022-11-05T01:22:22.406Z,99846.47
2022-11-05T01:25:25.979Z,99851.69
2022-11-05T01:28:28.454Z,99851.69
2022-11-05T01:31:33.191Z,99854.31
2022-11-05T01:34:36.024Z,99855.13
2022-11-05T01:37:39.935Z,99857.66
2022-11-05T01:40:43.265Z,99854.88
2022-11-05T01:43:57.562Z,99852.12
2022-11-05T01:47:00.245Z,99860.66
2022-11-05T01:50:21.737Z,99868.28
2022-11-05T01:53:48.423Z,99854.28
2022-11-05T01:57:02.052Z,99854.09
2022-11-05T02:00:05.512Z,99859.22
2022-11-05T02:03:17.323Z,99862.56
2022-11-05T02:06:21.598Z,99872.88
2022-11-05T02:09:29.904Z,99869.34
2022-11-05T02:12:34.661Z,99859.66
2022-11-05T02:15:51.858Z,99856.13
2022-11-05T02:19:25.182Z,99853.53
2022-11-05T02:22:40.465Z,99869.88
2022-11-05T02:25:55.178Z,99875.03
2022-11-05T02:29:03.758Z,99883.62
2022-11-05T02:32:18.802Z,99884.44
2022-11-05T02:35:54.927Z,99878.22
2022-11-05T02:39:23.266Z,99882.53
2022-11-05T02:42:47.293Z,99885.03
2022-11-05T02:46:17.877Z,99897.13
2022-11-05T02:49:42.298Z,99901.44
2022-11-05T02:52:48.251Z,99910.84
2022-11-05T02:56:04.545Z,99917.81
2022-11-05T02:59:08.444Z,99913.50
2022-11-05T03:02:11.769Z,99908.34
2022-11-05T03:05:16.110Z,99904.88
2022-11-05T03:08:36.786Z,99904.88
2022-11-05T03:12:04.173Z,99906.53
2022-11-05T03:15:38.078Z,99914.34
2022-11-05T03:18:51.814Z,99909.97
2022-11-05T03:22:01.087Z,99913.31
2022-11-05T03:25:10.902Z,99928.12
2022-11-05T03:28:15.085Z,99931.56
2022-11-05T03:31:21.128Z,99928.91
2022-11-05T03:34:30.198Z,99932.34
2022-11-05T03:37:37.496Z,99929.75
2022-11-05T03:40:42.714Z,99923.66
2022-11-05T03:43:49.549Z,99926.28
2022-11-05T03:46:57.501Z,99935.72
2022-11-05T03:50:41.433Z,99945.22
2022-11-05T03:53:50.104Z,99950.38
2022-11-05T03:57:08.868Z,99942.63
2022-11-05T04:00:14.600Z,99948.66
2022-11-05T04:03:19.521Z,99944.19
2022-11-05T04:06:41.822Z,99932.91
2022-11-05T04:10:03.876Z,99929.44
2022-11-05T04:13:24.977Z,99933.69
2022-11-05T04:16:46.718Z,99937.97
2022-11-05T04:20:08.074Z,99926.59
2022-11-05T04:23:30.311Z,99928.31
2022-11-05T04:26:33.096Z,99938.66
2022-11-05T04:29:54.992Z,99920.38
2022-11-05T04:33:03.078Z,99914.34
2022-11-05T04:36:06.446Z,99910.81
2022-11-05T04:39:10.952Z,99916.06
2022-11-05T04:42:13.893Z,99910.81
2022-11-05T04:45:16.910Z,99915.97
2022-11-05T04:48:20.173Z,99919.41
2022-11-05T04:51:23.454Z,99917.69
2022-11-05T04:54:28.512Z,99922.88
2022-11-05T04:57:31.258Z,99917.72
2022-11-05T05:00:36.925Z,99923.72
2022-11-05T05:03:40.949Z,99918.47
2022-11-05T05:06:44.114Z,99915.03
2022-11-05T05:09:54.936Z,99912.38
2022-11-05T05:12:58.646Z,99919.25
2022-11-05T05:16:08.685Z,99927.94
2022-11-05T05:19:13.043Z,99924.44
2022-11-05T05:22:15.689Z,99930.47
2022-11-05T05:25:26.376Z,99922.63
2022-11-05T05:28:29.956Z,99926.94
2022-11-05T05:31:33.475Z,99924.34
2022-11-05T05:34:37.021Z,99927.81
2022-11-05T05:37:44.440Z,99934.78
2022-11-05T05:40:47.520Z,99934.78
2022-11-05T05:43:50.886Z,99943.47
2022-11-05T05:46:55.656Z,99949.56
2022-11-05T05:50:00.055Z,99954.69
2022-11-05T05:53:03.405Z,99967.69
2022-11-05T05:56:08.034Z,99968.53
2022-11-05T05:59:14.942Z,99978.97
2022-11-05T06:02:18.790Z,99977.31
2022-11-05T06:05:24.059Z,99994.63
2022-11-05T06:08:35.133Z,99989.53
2022-11-05T06:11:41.934Z,99999.88
2022-11-05T06:14:45.936Z,100003.44
2022-11-05T06:17:51.004Z,100012.19
2022-11-05T06:21:07.925Z,100019.16
2022-11-05T06:24:13.964Z,100027.06
2022-11-05T06:27:19.954Z,100021.03
2022-11-05T06:30:26.053Z,100021.97
2022-11-05T06:33:31.928Z,100034.06
2022-11-05T06:36:42.083Z,100029.91
2022-11-05T06:39:46.814Z,100030.81
2022-11-05T06:42:52.961Z,100027.50
2022-11-05T06:45:58.217Z,100026.72
2022-11-05T06:49:04.144Z,100032.88
2022-11-05T06:52:08.927Z,100038.19
2022-11-05T06:55:13.150Z,100035.75
2022-11-05T06:58:21.106Z,100048.88
2022-11-05T07:01:24.453Z,100042.97
2022-11-05T07:04:28.858Z,100048.34
2022-11-05T07:07:38.173Z,100051.09
2022-11-05T07:10:41.999Z,100052.22
2022-11-05T07:13:53.877Z,100061.16
2022-11-05T07:16:58.298Z,100057.03
2022-11-05T07:20:10.938Z,100058.13
2022-11-05T07:23:20.331Z,100059.06
2022-11-05T07:26:33.390Z,100055.84
2022-11-05T07:29:39.170Z,100048.91
2022-11-05T07:32:46.918Z,100049.78
2022-11-05T07:35:54.948Z,100048.94
2022-11-05T07:39:01.012Z,100056.66
2022-11-05T07:42:05.056Z,100053.78
2022-11-05T07:45:16.149Z,100059.88
2022-11-05T07:48:20.893Z,100068.56
2022-11-05T07:51:28.140Z,100063.38
2022-11-05T07:54:41.032Z,100066.03
2022-11-05T07:57:59.991Z,100058.53
2022-11-05T08:01:21.485Z,100054.34
2022-11-05T08:04:31.373Z,100050.94
2022-11-05T08:07:36.855Z,100051.13
2022-11-05T08:10:42.255Z,100047.78
2022-11-05T08:13:57.961Z,100036.59
2022-11-05T08:17:04.270Z,100045.50
2022-11-05T08:20:17.013Z,100037.88
2022-11-05T08:23:29.864Z,100027.72
2022-11-05T08:26:33.983Z,100023.66
2022-11-05T08:29:37.549Z,100038.56
2022-11-05T08:32:42.107Z,100035.50
2022-11-05T08:35:51.252Z,100046.09
2022-11-05T08:38:54.712Z,100037.37
2022-11-05T08:42:02.920Z,100046.84
2022-11-05T08:45:09.998Z,100049.28
2022-11-05T08:48:21.147Z,100055.38
2022-11-05T08:51:27.967Z,100044.81
2022-11-05T08:54:32.304Z,100058.69
2022-11-05T08:57:36.715Z,100059.53
2022-11-05T09:00:50.189Z,100064.75
2022-11-05T09:03:53.864Z,100077.69
2022-11-05T09:06:59.338Z,100074.22
2022-11-05T09:10:02.242Z,100089.13
2022-11-05T09:13:05.936Z,100083.12
2022-11-05T09:16:19.966Z,100075.38
2022-11-05T09:19:23.286Z,100086.78
2022-11-05T09:22:27.890Z,100080.81
2022-11-05T09:25:33.888Z,100087.87
2022-11-05T09:28:42.290Z,100081.16
2022-11-05T09:31:52.417Z,100079.47
2022-11-05T09:34:55.155Z,100074.41
2022-11-05T09:38:02.958Z,100071.91
2022-11-05T09:41:13.045Z,100074.59
2022-11-05T09:44:32.005Z,100080.94
2022-11-05T09:47:58.367Z,100091.56
2022-11-05T09:51:06.282Z,100088.37
2022-11-05T09:54:13.257Z,100078.91
2022-11-05T09:57:48.432Z,100078.19
2022-11-05T10:00:57.231Z,100075.06
2022-11-05T10:04:14.959Z,100065.88
2022-11-05T10:07:23.893Z,100076.59
2022-11-05T10:10:41.484Z,100073.47
2022-11-05T10:13:59.455Z,100072.78
2022-11-05T10:17:22.946Z,100076.28
2022-11-05T10:20:38.416Z,100073.78
2022-11-05T10:23:44.711Z,100076.50
2022-11-05T10:27:00.337Z,100071.16
2022-11-05T10:30:06.201Z,100069.56
2022-11-05T10:33:16.911Z,100068.94
2022-11-05T10:36:35.150Z,100061.22
2022-11-05T10:39:38.178Z,100063.28
2022-11-05T10:43:02.212Z,100064.09
2022-11-05T10:46:32.589Z,100063.47
2022-11-05T10:49:59.259Z,100069.91
2022-11-05T10:53:17.922Z,100084.06
2022-11-05T10:56:39.940Z,100087.16
2022-11-05T10:59:44.506Z,100095.25
2022-11-05T11:02:57.812Z,100102.25
2022-11-05T11:06:26.038Z,100103.03
2022-11-05T11:09:37.982Z,100108.06
2022-11-05T11:12:43.712Z,100107.09
2022-11-05T11:15:58.856Z,100101.00
2022-11-05T11:19:27.143Z,100099.53
2022-11-05T11:22:32.920Z,100095.72
2022-11-05T11:25:48.203Z,100094.37
2022-11-05T11:29:12.529Z,100087.44
2022-11-05T11:32:24.999Z,100087.25
2022-11-05T11:35:30.778Z,100096.00
2022-11-05T11:38:36.785Z,100095.13
2022-11-05T11:41:44.831Z,100094.06
2022-11-05T11:44:52.093Z,100102.75
2022-11-05T11:47:58.015Z,100107.22
2022-11-05T11:51:20.516Z,100104.59
2022-11-05T11:54:28.951Z,100103.53
2022-11-05T11:57:32.022Z,100110.31
2022-11-05T12:00:46.034Z,100111.78
2022-11-05T12:04:07.013Z,100120.38
2022-11-05T12:07:48.873Z,100119.41
2022-11-05T12:11:14.932Z,100110.72
2022-11-05T12:14:50.123Z,100113.12
2022-11-05T12:18:06.888Z,100120.19
2022-11-05T12:21:50.853Z,100128.75
2022-11-05T12:25:05.809Z,100136.50
2022-11-05T12:29:12.241Z,100128.63
2022-11-05T12:32:44.021Z,100132.16
2022-11-05T12:36:21.954Z,100130.41
2022-11-05T12:39:33.123Z,100132.97
2022-11-05T12:43:02.884Z,100133.81
2022-11-05T12:46:18.241Z,100140.69
2022-11-05T12:49:42.121Z,100145.78
2022-11-05T12:53:23.001Z,100144.06
2022-11-05T12:56:58.875Z,100145.78
2022-11-05T13:00:08.978Z,100143.06
2022-11-05T13:03:50.828Z,100143.81
2022-11-05T13:06:56.167Z,100143.78
2022-11-05T13:10:24.905Z,100142.03
2022-11-05T13:13:43.868Z,100155.13
2022-11-05T13:16:52.880Z,100154.22
2022-11-05T13:20:05.779Z,100159.41
2022-11-05T13:23:18.667Z,100157.69
2022-11-05T13:26:36.243Z,100162.03
2022-11-05T13:30:12.864Z,100168.91
2022-11-05T13:33:41.869Z,100165.44
2022-11-05T13:37:28.641Z,100168.03
2022-11-05T13:41:11.902Z,100162.78
2022-11-05T13:44:36.065Z,100159.25
2022-11-05T13:48:05.892Z,100161.88
2022-11-05T13:51:48.071Z,100168.00
2022-11-05T13:55:24.922Z,100176.72
2022-11-05T13:59:04.073Z,100176.75
2022-11-05T14:02:21.072Z,100185.41
2022-11-05T14:05:28.412Z,100180.19
2022-11-05T14:08:43.883Z,100188.00
2022-11-05T14:11:53.277Z,100190.56
2022-11-05T14:15:05.322Z,100192.28
2022-11-05T14:18:25.073Z,100186.97
2022-11-05T14:21:28.417Z,100196.53
2022-11-05T14:24:44.810Z,100195.63
2022-11-05T14:27:52.840Z,100201.62
2022-11-05T14:30:58.946Z,100206.78
2022-11-05T14:34:24.232Z,100198.88
2022-11-05T14:37:33.127Z,100197.94
2022-11-05T14:40:39.074Z,100203.97
2022-11-05T14:44:08.077Z,100210.03
2022-11-05T14:47:21.924Z,100205.59
2022-11-05T14:50:38.154Z,100209.84
2022-11-05T14:53:48.090Z,100215.03
2022-11-05T14:57:04.923Z,100217.59
2022-11-05T15:00:45.788Z,100223.63
2022-11-05T15:04:29.927Z,100220.00
2022-11-05T15:07:37.513Z,100230.37
2022-11-05T15:10:44.086Z,100221.62
2022-11-05T15:13:58.090Z,100226.81
2022-11-05T15:17:16.496Z,100226.69
2022-11-05T15:20:43.629Z,100227.53
2022-11-05T15:24:00.035Z,100230.87
2022-11-05T15:27:09.852Z,100240.41
2022-11-05T15:30:21.955Z,100240.31
2022-11-05T15:33:26.979Z,100252.44
2022-11-05T15:36:39.825Z,100256.75
2022-11-05T15:39:54.867Z,100254.09
2022-11-05T15:43:19.886Z,100246.22
2022-11-05T15:46:30.057Z,100254.06
2022-11-05T15:49:43.904Z,100261.84
2022-11-05T15:53:04.818Z,100259.16
2022-11-05T15:56:36.888Z,100274.81
2022-11-05T15:59:47.637Z,100269.59
2022-11-05T16:02:53.728Z,100272.16
2022-11-05T16:06:00.819Z,100266.06
2022-11-05T16:09:05.974Z,100267.78
2022-11-05T16:12:21.908Z,100277.34
2022-11-05T16:15:35.888Z,100282.53
2022-11-05T16:18:40.140Z,100274.66
2022-11-05T16:21:55.056Z,100290.28
2022-11-05T16:25:26.870Z,100283.19
2022-11-05T16:28:37.517Z,100287.50
2022-11-05T16:31:51.136Z,100295.22
2022-11-05T16:35:09.816Z,100296.03
2022-11-05T16:38:17.103Z,100302.84
2022-11-05T16:41:22.208Z,100295.75
2022-11-05T16:44:36.053Z,100300.84
2022-11-05T16:47:40.231Z,100299.84
2022-11-05T16:50:57.149Z,100310.19
2022-11-05T16:54:20.306Z,100308.25
2022-11-05T16:57:55.470Z,100313.41
2022-11-05T17:01:33.139Z,100315.03
2022-11-05T17:05:08.505Z,100318.34
2022-11-05T17:08:41.701Z,100316.50
2022-11-05T17:12:06.265Z,100319.84
2022-11-05T17:15:37.250Z,100323.16
2022-11-05T17:18:53.234Z,100316.03
2022-11-05T17:22:10.915Z,100329.81
2022-11-05T17:25:23.254Z,100335.75
2022-11-05T17:28:35.265Z,100335.66
2022-11-05T17:31:45.820Z,100332.13
2022-11-05T17:34:54.903Z,100332.97
2022-11-05T17:38:04.043Z,100341.56
2022-11-05T17:41:16.139Z,100336.25
2022-11-05T17:44:27.320Z,100341.53
2022-11-05T17:47:32.392Z,100334.50
2022-11-05T17:50:48.601Z,100343.03
2022-11-05T17:53:54.920Z,100350.03
2022-11-05T17:56:59.104Z,100349.84
2022-11-05T18:00:05.898Z,100356.81
2022-11-05T18:03:21.840Z,100370.72
2022-11-05T18:06:39.808Z,100369.84
2022-11-05T18:09:48.848Z,100371.56
2022-11-05T18:12:52.462Z,100377.62
2022-11-05T18:15:59.054Z,100393.34
2022-11-05T18:19:11.819Z,100387.16
2022-11-05T18:22:19.922Z,100394.97
2022-11-05T18:25:27.847Z,100404.56
2022-11-05T18:28:32.824Z,100397.56
2022-11-05T18:31:44.284Z,100405.25
2022-11-05T18:34:50.086Z,100408.59
2022-11-05T18:37:57.504Z,100410.31
2022-11-05T18:41:08.914Z,100417.50
2022-11-05T18:44:14.973Z,100421.97
2022-11-05T18:47:20.103Z,100423.75
2022-11-05T18:50:31.884Z,100422.97
2022-11-05T18:53:40.889Z,100428.22
2022-11-05T18:56:46.179Z,100428.28
2022-11-05T18:59:56.954Z,100437.03
2022-11-05T19:03:02.892Z,100423.06
2022-11-05T19:06:21.818Z,100433.53
2022-11-05T19:09:32.985Z,100436.19
2022-11-05T19:12:44.150Z,100444.84
2022-11-05T19:15:49.592Z,100446.56
2022-11-05T19:18:59.390Z,100444.03
2022-11-05T19:22:22.564Z,100450.97
2022-11-05T19:25:35.111Z,100451.84
2022-11-05T19:28:48.970Z,100464.88
2022-11-05T19:31:53.677Z,100469.31
2022-11-05T19:34:58.906Z,100468.47
2022-11-05T19:38:02.766Z,100481.50
2022-11-05T19:41:10.927Z,100478.00
2022-11-05T19:44:18.074Z,100487.59
2022-11-05T19:47:25.335Z,100488.50
2022-11-05T19:50:33.565Z,100491.94
2022-11-05T19:53:52.878Z,100498.03
2022-11-05T19:57:02.456Z,100505.03
2022-11-05T20:00:17.816Z,100511.06
2022-11-05T20:03:24.102Z,100508.47
2022-11-05T20:06:36.198Z,100515.41
2022-11-05T20:09:44.188Z,100520.62
2022-11-05T20:12:52.084Z,100519.78
2022-11-05T20:15:56.868Z,100528.50
2022-11-05T20:19:14.774Z,100530.22
2022-11-05T20:22:21.055Z,100526.78
2022-11-05T20:25:25.118Z,100528.50
2022-11-05T20:28:40.987Z,100522.44
2022-11-05T20:31:46.971Z,100537.97
2022-11-05T20:35:00.850Z,100535.44
2022-11-05T20:38:10.613Z,100532.81
2022-11-05T20:41:17.015Z,100544.97
2022-11-05T20:44:21.900Z,100544.12
2022-11-05T20:47:31.168Z,100546.78
2022-11-05T20:50:42.879Z,100546.78
2022-11-05T20:54:04.896Z,100552.00
2022-11-05T20:57:10.297Z,100549.41
2022-11-05T21:00:21.015Z,100561.59
2022-11-05T21:03:31.576Z,100559.00
2022-11-05T21:06:35.958Z,100555.56
2022-11-05T21:09:40.511Z,100561.66
2022-11-05T21:12:45.060Z,100565.97
2022-11-05T21:15:59.392Z,100564.22
2022-11-05T21:19:03.212Z,100563.38
2022-11-05T21:22:13.813Z,100566.94
2022-11-05T21:25:17.607Z,100565.22
2022-11-05T21:28:21.628Z,100569.53
2022-11-05T21:31:32.911Z,100562.59
2022-11-05T21:34:38.103Z,100567.81
2022-11-05T21:37:46.591Z,100564.31
2022-11-05T21:40:52.859Z,100567.81
2022-11-05T21:44:04.264Z,100571.31
2022-11-05T21:47:14.927Z,100568.66
2022-11-05T21:50:41.229Z,100569.53
2022-11-05T21:54:05.874Z,100572.09
2022-11-05T21:57:36.907Z,100570.38
2022-11-05T22:00:40.539Z,100579.91
2022-11-05T22:03:45.367Z,100571.19
2022-11-05T22:06:54.396Z,100571.19
2022-11-05T22:09:57.713Z,100575.53
2022-11-05T22:13:01.190Z,100576.41
2022-11-05T22:16:06.015Z,100576.41
2022-11-05T22:19:13.653Z,100583.41
2022-11-05T22:22:21.873Z,100584.22
2022-11-05T22:25:31.823Z,100572.87
2022-11-05T22:28:35.590Z,100582.47
2022-11-05T22:31:39.994Z,100586.78
2022-11-05T22:34:43.410Z,100579.84
2022-11-05T22:37:53.219Z,100583.34
2022-11-05T22:40:58.502Z,100585.06
2022-11-05T22:44:04.737Z,100582.47
2022-11-05T22:47:11.485Z,100588.56
2022-11-05T22:50:15.125Z,100583.28
2022-11-05T22:53:18.072Z,100598.16
2022-11-05T22:56:23.956Z,100594.59
2022-11-05T22:59:31.048Z,100585.91
2022-11-05T23:02:35.172Z,100595.50
2022-11-05T23:05:42.746Z,100594.59
2022-11-05T23:09:05.019Z,100593.78
2022-11-05T23:12:19.050Z,100598.03
2022-11-05T23:15:41.942Z,100598.03
2022-11-05T23:19:04.729Z,100604.22
2022-11-05T23:22:35.625Z,100603.31
2022-11-05T23:25:38.793Z,100604.16
2022-11-05T23:28:42.139Z,100610.19
2022-11-05T23:32:04.589Z,100607.53
2022-11-05T23:35:07.791Z,100601.31
2022-11-05T23:38:30.512Z,100599.59
2022-11-05T23:41:52.092Z,100599.59
2022-11-05T23:45:15.052Z,100601.31
2022-11-05T23:48:27.018Z,100609.13
2022-11-05T23:51:30.010Z,100598.66
2022-11-05T23:54:32.897Z,100610.88
2022-11-05T23:57:36.932Z,100606.53
